createdAt,value
2023-05-16T00:01:12.192Z,5.80
2023-05-16T00:06:13.611Z,4.93
2023-05-16T00:11:15.022Z,5.33
2023-05-16T00:16:16.486Z,4.37
2023-05-16T00:21:17.927Z,4.27
2023-05-16T00:26:19.337Z,4.40
2023-05-16T00:31:20.787Z,3.90
2023-05-16T00:36:23.780Z,3.87
2023-05-16T00:41:25.428Z,3.30
2023-05-16T00:46:26.869Z,3.30
2023-05-16T00:51:28.362Z,3.60
2023-05-16T00:56:29.800Z,3.10
2023-05-16T01:01:31.254Z,2.83
2023-05-16T01:06:32.684Z,2.63
2023-05-16T01:11:34.080Z,2.57
2023-05-16T01:16:35.626Z,2.60
2023-05-16T01:21:37.083Z,4.60
2023-05-16T01:26:38.486Z,2.27
2023-05-16T01:31:39.922Z,4.70
2023-05-16T01:36:41.359Z,2.60
2023-05-16T01:41:42.733Z,3.20
2023-05-16T01:46:44.127Z,3.60
2023-05-16T01:51:45.733Z,2.80
2023-05-16T01:56:47.174Z,4.20
2023-05-16T02:01:48.590Z,3.40
2023-05-16T02:06:49.982Z,6.00
2023-05-16T02:11:51.374Z,5.30
2023-05-16T02:16:52.829Z,5.93
2023-05-16T02:21:54.255Z,4.53
2023-05-16T02:26:55.668Z,3.77
2023-05-16T02:31:57.084Z,3.40
2023-05-16T02:36:58.695Z,6.10
2023-05-16T02:42:00.133Z,4.10
2023-05-16T02:47:01.544Z,3.23
2023-05-16T02:52:02.973Z,4.80
2023-05-16T02:57:04.394Z,6.57
2023-05-16T03:02:05.899Z,5.00
2023-05-16T03:07:07.444Z,6.33
2023-05-16T03:12:08.883Z,3.90
2023-05-16T03:17:10.289Z,7.10
2023-05-16T03:22:11.684Z,6.90
2023-05-16T03:27:13.088Z,7.57
2023-05-16T03:32:14.515Z,6.67
2023-05-16T03:37:15.961Z,9.37
2023-05-16T03:42:17.373Z,7.70
2023-05-16T03:47:18.776Z,8.40
2023-05-16T03:52:20.181Z,6.43
2023-05-16T03:57:21.602Z,5.80
2023-05-16T04:02:23.072Z,10.03
2023-05-16T04:07:24.517Z,7.07
2023-05-16T04:12:25.944Z,7.53
2023-05-16T04:17:27.427Z,7.83
2023-05-16T04:22:28.841Z,7.60
2023-05-16T04:27:30.244Z,10.93
2023-05-16T04:32:31.779Z,6.10
2023-05-16T04:37:33.194Z,7.50
2023-05-16T04:42:34.617Z,8.23
2023-05-16T04:47:36.056Z,5.87
2023-05-16T04:52:37.477Z,6.93
2023-05-16T04:57:38.889Z,7.67
2023-05-16T05:02:40.332Z,7.83
2023-05-16T05:07:41.794Z,6.90
2023-05-16T05:12:43.194Z,5.60
2023-05-16T05:17:44.669Z,5.23
2023-05-16T05:22:46.107Z,7.37
2023-05-16T05:27:47.519Z,6.00
2023-05-16T05:32:49.072Z,4.90
2023-05-16T05:37:50.522Z,6.17
2023-05-16T05:42:51.970Z,6.63
2023-05-16T05:47:53.440Z,6.90
2023-05-16T05:52:54.840Z,7.63
2023-05-16T05:57:56.226Z,6.43
2023-05-16T06:02:57.717Z,8.50
2023-05-16T06:07:59.228Z,6.70
2023-05-16T06:13:00.640Z,6.37
2023-05-16T06:18:02.095Z,5.67
2023-05-16T06:23:03.513Z,6.87
2023-05-16T06:28:04.930Z,7.70
2023-05-16T06:33:06.392Z,5.03
2023-05-16T06:38:07.859Z,5.23
2023-05-16T06:43:09.318Z,5.30
2023-05-16T06:48:10.822Z,5.47
2023-05-16T06:53:12.296Z,4.03
2023-05-16T06:58:13.764Z,6.80
2023-05-16T07:03:15.234Z,6.13
2023-05-16T07:08:16.688Z,4.97
2023-05-16T07:13:18.127Z,8.27
2023-05-16T07:18:19.575Z,6.50
2023-05-16T07:23:21.023Z,7.20
2023-05-16T07:28:22.584Z,6.10
2023-05-16T07:33:24.024Z,4.33
2023-05-16T07:38:25.647Z,5.37
2023-05-16T07:43:28.361Z,4.27
2023-05-16T07:48:29.881Z,3.87
2023-05-16T07:53:31.315Z,5.03
2023-05-16T07:58:32.769Z,4.90
2023-05-16T08:03:34.496Z,4.70
2023-05-16T08:08:37.152Z,4.27
2023-05-16T08:13:38.830Z,4.27
2023-05-16T08:18:40.348Z,4.30
2023-05-16T08:23:41.856Z,4.93
2023-05-16T08:28:43.314Z,2.77
2023-05-16T08:33:44.764Z,3.50
2023-05-16T08:38:46.225Z,4.40
2023-05-16T08:43:47.677Z,4.30
2023-05-16T08:48:49.150Z,3.50
2023-05-16T08:53:50.608Z,4.10
2023-05-16T08:58:52.069Z,5.73
2023-05-16T09:03:53.595Z,3.20
2023-05-16T09:08:55.100Z,4.27
2023-05-16T09:13:56.584Z,3.10
2023-05-16T09:18:58.247Z,4.23
2023-05-16T09:23:59.795Z,3.70
2023-05-16T09:29:01.287Z,2.50
2023-05-16T09:34:02.740Z,2.50
2023-05-16T09:39:04.212Z,6.53
2023-05-16T09:44:05.683Z,3.77
2023-05-16T09:49:07.143Z,2.70
2023-05-16T09:54:08.602Z,2.80
2023-05-16T09:59:10.046Z,2.93
2023-05-16T10:04:11.627Z,4.70
2023-05-16T10:09:13.141Z,2.97
2023-05-16T10:14:14.717Z,5.90
2023-05-16T10:19:16.238Z,2.90
2023-05-16T10:24:17.734Z,3.83
2023-05-16T10:29:19.190Z,6.10
2023-05-16T10:34:20.642Z,3.50
2023-05-16T10:39:22.084Z,3.23
2023-05-16T10:44:23.553Z,3.90
2023-05-16T10:49:24.993Z,3.57
2023-05-16T10:54:26.480Z,4.30
2023-05-16T10:59:27.950Z,2.60
2023-05-16T11:04:29.396Z,3.67
2023-05-16T11:09:30.865Z,2.20
2023-05-16T11:14:32.666Z,2.77
2023-05-16T11:19:34.417Z,4.07
2023-05-16T11:24:35.940Z,2.77
2023-05-16T11:29:37.426Z,2.00
2023-05-16T11:34:38.893Z,4.13
2023-05-16T11:39:40.439Z,3.20
2023-05-16T11:44:41.897Z,4.00
2023-05-16T11:49:43.347Z,4.03
2023-05-16T11:54:44.784Z,1.90
2023-05-16T11:59:46.248Z,5.40
2023-05-16T12:04:47.982Z,3.17
2023-05-16T12:09:49.739Z,2.90
2023-05-16T12:14:51.180Z,4.03
2023-05-16T12:19:52.644Z,2.60
2023-05-16T12:24:54.089Z,1.97
2023-05-16T12:29:55.532Z,1.67
2023-05-16T12:34:56.982Z,1.20
2023-05-16T12:39:58.498Z,2.60
2023-05-16T12:44:59.946Z,3.90
2023-05-16T12:50:01.401Z,2.10
2023-05-16T12:55:02.847Z,2.20
2023-05-16T13:00:04.301Z,1.33
2023-05-16T13:05:08.144Z,1.63
2023-05-16T13:10:09.636Z,2.50
2023-05-16T13:15:11.149Z,2.03
2023-05-16T13:20:12.642Z,1.77
2023-05-16T13:25:14.120Z,3.03
2023-05-16T13:30:15.580Z,1.63
2023-05-16T13:35:17.045Z,1.90
2023-05-16T13:40:18.494Z,3.43
2023-05-16T13:45:19.975Z,2.80
2023-05-16T13:50:21.443Z,2.27
2023-05-16T13:55:22.895Z,2.83
2023-05-16T14:05:28.689Z,3.03
2023-05-16T14:10:30.347Z,2.87
2023-05-16T14:15:32.096Z,3.00
2023-05-16T14:20:33.639Z,3.33
2023-05-16T14:25:35.086Z,3.53
2023-05-16T14:30:36.537Z,2.77
2023-05-16T14:35:38.008Z,1.60
2023-05-16T14:40:39.512Z,2.70
2023-05-16T14:45:40.951Z,3.13
2023-05-16T14:50:42.409Z,5.53
2023-05-16T14:55:43.857Z,2.23
2023-05-16T15:00:45.500Z,3.77
2023-05-16T15:05:46.966Z,4.00
2023-05-16T15:10:48.405Z,3.23
2023-05-16T15:15:50.140Z,3.47
2023-05-16T15:20:51.625Z,2.43
2023-05-16T15:25:53.075Z,2.33
2023-05-16T15:30:54.524Z,3.60
2023-05-16T15:35:55.969Z,1.70
2023-05-16T15:41:15.335Z,3.20
2023-05-16T15:46:18.882Z,3.77
2023-05-16T15:51:20.392Z,5.03
2023-05-16T15:56:21.835Z,3.50
2023-05-16T16:01:23.303Z,4.23
2023-05-16T16:06:24.833Z,3.63
2023-05-16T16:11:26.309Z,2.70
2023-05-16T16:16:27.881Z,4.73
2023-05-16T16:21:29.363Z,4.97
2023-05-16T16:26:30.822Z,3.23
2023-05-16T16:31:32.324Z,2.93
2023-05-16T16:36:33.818Z,4.40
2023-05-16T16:41:35.267Z,4.73
2023-05-16T16:46:36.722Z,3.10
2023-05-16T16:51:38.198Z,3.50
2023-05-16T16:56:39.633Z,4.87
2023-05-16T17:01:41.178Z,3.10
2023-05-16T17:06:42.704Z,2.10
2023-05-16T17:11:44.237Z,3.37
2023-05-16T17:16:45.758Z,2.80
2023-05-16T17:21:47.291Z,2.83
2023-05-16T17:26:48.754Z,3.83
2023-05-16T17:31:50.213Z,3.17
2023-05-16T17:36:51.665Z,6.50
2023-05-16T17:41:53.113Z,3.20
2023-05-16T17:46:54.577Z,5.77
2023-05-16T17:51:56.034Z,3.77
2023-05-16T17:56:57.557Z,2.87
2023-05-16T18:01:59.066Z,3.80
2023-05-16T18:07:03.125Z,3.67
2023-05-16T18:12:04.577Z,4.17
2023-05-16T18:17:06.155Z,3.43
2023-05-16T18:22:07.619Z,3.67
2023-05-16T18:27:09.106Z,3.33
2023-05-16T18:32:10.559Z,5.57
2023-05-16T18:37:12.041Z,3.87
2023-05-16T18:42:13.519Z,3.93
2023-05-16T18:47:15.024Z,4.37
2023-05-16T18:52:16.512Z,3.40
2023-05-16T18:57:18.018Z,5.77
2023-05-16T19:02:24.632Z,3.80
2023-05-16T19:07:35.799Z,3.60
2023-05-16T19:12:37.289Z,2.60
2023-05-16T19:17:38.969Z,6.73
2023-05-16T19:22:40.479Z,2.70
2023-05-16T19:27:41.936Z,3.10
2023-05-16T19:32:43.519Z,3.27
2023-05-16T19:37:44.998Z,3.83
2023-05-16T19:42:46.476Z,2.47
2023-05-16T19:47:48.118Z,4.47
2023-05-16T19:52:49.690Z,3.03
2023-05-16T19:57:51.160Z,4.17
2023-05-16T20:02:52.993Z,2.70
2023-05-16T20:07:54.728Z,4.33
2023-05-16T20:12:56.195Z,2.53
2023-05-16T20:17:57.685Z,3.67
2023-05-16T20:22:59.160Z,3.07
2023-05-16T20:28:00.694Z,2.77
2023-05-16T20:33:02.228Z,2.90
2023-05-16T20:38:03.729Z,4.33
2023-05-16T20:43:05.176Z,2.47
2023-05-16T20:48:06.698Z,5.57
2023-05-16T20:53:08.215Z,2.50
2023-05-16T20:58:09.660Z,2.57
2023-05-16T21:03:11.101Z,3.30
2023-05-16T21:08:12.573Z,4.40
2023-05-16T21:13:14.039Z,2.87
2023-05-16T21:18:15.630Z,3.40
2023-05-16T21:23:17.158Z,3.27
2023-05-16T21:28:18.593Z,1.77
2023-05-16T21:33:20.108Z,2.40
2023-05-16T21:38:21.640Z,4.17
2023-05-16T21:43:23.084Z,3.63
2023-05-16T21:48:24.680Z,4.07
2023-05-16T21:53:26.235Z,2.23
2023-05-16T21:58:27.710Z,3.67
2023-05-16T22:03:29.194Z,3.23
2023-05-16T22:08:30.768Z,3.20
2023-05-16T22:13:32.278Z,3.87
2023-05-16T22:18:34.146Z,3.00
2023-05-16T22:23:35.740Z,2.03
2023-05-16T22:28:37.183Z,2.17
2023-05-16T22:33:39.318Z,2.73
2023-05-16T22:38:40.875Z,3.37
2023-05-16T22:43:42.335Z,2.20
2023-05-16T22:48:43.807Z,3.00
2023-05-16T22:53:45.592Z,2.60
2023-05-16T22:58:47.186Z,2.00
2023-05-16T23:03:49.752Z,2.37
2023-05-16T23:08:51.324Z,3.53
2023-05-16T23:13:52.934Z,2.00
2023-05-16T23:18:54.577Z,3.13
2023-05-16T23:23:59.080Z,2.17
2023-05-16T23:29:00.538Z,3.03
2023-05-16T23:34:02.189Z,3.07
2023-05-16T23:39:03.784Z,3.33
2023-05-16T23:44:05.221Z,4.03
2023-05-16T23:49:06.685Z,2.27
2023-05-16T23:54:08.142Z,1.93
2023-05-16T23:59:09.602Z,3.40
